Latest Coastal Weather Observations for Portland Airport

IDS60701

Issued at 12:21 am CST Sunday 30 August 2015 (issued every 10 minutes, with the page automatically refreshed every 10 minutes)

About coastal observations | Map of coastal stations | Coastal observations for SA | Marine services | Other Formats
Station Details ID: 090171 Name: CASHMORE AIRPORT Lat: -38.31 Lon: 141.47 Height: 80.9 m
Data from the previous 72 hours. | See also: Recent months at Portland Airport
Date/Time
CST
Temp

°C
Wind Pressure Rain
since 9am
mm
Weather Cloud Vis
km
Sea
Height
m
Swell
Dir
 
Speed
knots
Gust
knots
hPa Trend Height
m
Period
s
Dir
30/12:03am 8.3 SSE 7 11 1028.4 - 0.6 - Partly cloudy 7 - - - -
30/12:02am 8.2 SSE 7 11 1028.4 - 0.6 - Partly cloudy 7 - - - -
30/12:00am 8.3 SSE 7 10 1028.4 - 0.6 - Partly cloudy 9 - - - -
 
Date/Time
CST
Temp

°C
Wind Pressure Rain
since 9am
mm
Weather Cloud Vis
km
Sea
Height
m
Swell
Dir
 
Speed
knots
Gust
knots
hPa Trend Height
m
Period
s
Dir
29/11:40pm 8.7 S 5 9 1028.4 - 0.4 - Partly cloudy 6 - - - -
29/11:30pm 8.4 S 5 7 1028.5 - 0.2 - Cloudy 10 - - - -
29/11:04pm 8.6 SSE 5 8 1028.6 - 0.2 - Partly cloudy 10 - - - -
29/11:00pm 8.6 SSE 6 8 1028.7 - 0.2 - Partly cloudy 10 - - - -
29/10:30pm 7.8 SSE 5 9 1028.8 - 0.2 - Partly cloudy 10 - - - -
29/10:00pm 8.6 SSE 6 10 1028.9 - 0.2 - Partly cloudy 10 - - - -
29/09:30pm 8.5 SSE 8 12 1028.9 - 0.2 - Partly cloudy 10 - - - -
29/09:00pm 8.8 SSE 7 10 1029.1 - 0.2 - Partly cloudy 10 - - - -
29/08:30pm 8.5 SSE 4 6 1029.3 - 0.2 - Cloudy 10 - - - -
29/08:00pm 8.4 SSE 7 10 1029.1 - 0.2 - Partly cloudy 10 - - - -
29/07:30pm 8.3 SSE 7 13 1029.1 - 0.2 - Partly cloudy 10 - - - -
29/07:00pm 8.2 S 4 6 1029.0 - 0.2 - Partly cloudy 10 - - - -
29/06:30pm 8.4 SSW 6 13 1029.0 - 0.2 - Partly cloudy 10 - - - -
29/06:00pm 8.2 S 5 8 1028.8 - 0.2 - Partly cloudy 10 - - - -
29/05:30pm 8.0 S 6 10 1028.7 - 0.2 - Mostly clear 10 - - - -
29/05:00pm 8.2 S 6 11 1028.7 - 0.2 - Partly cloudy 10 - - - -
29/04:30pm 8.8 SSE 6 9 1028.8 - 0.2 - Partly cloudy 10 - - - -
29/04:00pm 9.5 S 9 14 1028.7 - 0.0 - Partly cloudy 10 - - - -
29/03:30pm 10.3 S 8 12 1028.7 - 0.0 - Partly cloudy 10 - - - -
29/03:00pm 9.7 S 8 11 1028.8 - 0.0 - Partly cloudy 10 - - - -
29/02:30pm 9.7 S 8 14 1028.9 - 0.0 - Cloudy 10 - - - -
29/02:00pm 10.6 S 8 13 1029.0 - 0.0 - Partly cloudy 10 - - - -
29/01:30pm 10.3 S 8 14 1029.1 - 0.0 - Partly cloudy 10 - - - -
29/01:00pm 10.1 S 10 13 1029.4 - 0.0 - Cloudy 10 - - - -
29/12:30pm 11.3 S 8 11 1029.6 - 0.0 - Partly cloudy 10 - - - -
29/12:00pm 10.2 SSE 9 14 1030.0 - 0.0 - Partly cloudy 10 - - - -
29/11:30am 10.1 SSE 8 13 1030.1 - 0.0 - Partly cloudy 10 - - - -
29/11:00am 10.3 SSE 9 15 1030.2 - 0.0 - Partly cloudy 10 - - - -
29/10:30am 9.5 SSE 10 16 1030.3 - 0.0 - Partly cloudy 10 - - - -
29/10:00am 9.4 SSE 10 17 1030.3 - 0.0 - Partly cloudy 10 - - - -
29/09:30am 10.1 SSE 10 14 1030.2 - 0.0 - - 10 - - - -
29/09:00am 9.5 SSE 10 16 1030.2 - 0.0 - Partly cloudy 10 - - - -
29/08:30am 10.0 SSE 11 16 1030.3 - 0.6 - Cloudy 10 - - - -
29/08:00am 8.8 SE 9 13 1030.2 - 0.6 - Partly cloudy 10 - - - -
29/07:30am 8.2 SE 7 11 1030.1 - 0.6 - Partly cloudy 10 - - - -
29/07:00am 7.5 SSE 7 11 1029.8 - 0.6 - Partly cloudy 10 - - - -
29/06:30am 7.4 S 6 11 1029.5 - 0.6 - Cloudy 10 - - - -
29/06:00am 7.5 SSE 6 9 1029.3 - 0.6 - Cloudy 10 - - - -
29/05:30am 7.0 SE 7 9 1029.2 - 0.6 - Partly cloudy 10 - - - -
29/05:00am 7.4 SE 7 11 1029.2 - 0.6 - Cloudy 10 - - - -
29/04:30am 6.6 SSE 5 8 1029.1 - 0.6 - Cloudy 10 - - - -
29/04:00am 4.6 CALM 0 0 1029.0 - 0.6 - Cloudy 10 - - - -
29/03:30am 5.5 SE 5 7 1028.9 - 0.6 - Partly cloudy 10 - - - -
29/03:00am 6.8 SE 7 9 1029.0 - 0.6 - Cloudy 10 - - - -
29/02:30am 7.8 SE 7 10 1029.3 - 0.6 - Cloudy 10 - - - -
29/02:00am 7.1 SE 5 7 1029.5 - 0.6 - Cloudy 10 - - - -
29/01:30am 7.2 ESE 7 12 1029.6 - 0.6 - Cloudy 10 - - - -
29/01:00am 7.1 ESE 7 10 1029.5 - 0.6 - Partly cloudy 10 - - - -
29/12:30am 7.8 SE 9 14 1029.5 - 0.6 - Cloudy 10 - - - -
29/12:00am 7.5 SE 6 9 1029.5 - 0.6 - Cloudy 10 - - - -
 
Date/Time
CST
Temp

°C
Wind Pressure Rain
since 9am
mm
Weather Cloud Vis
km
Sea
Height
m
Swell
Dir
 
Speed
knots
Gust
knots
hPa Trend Height
m
Period
s
Dir
28/11:30pm 8.2 SE 11 15 1029.7 - 0.6 - Cloudy 10 - - - -
28/11:00pm 7.5 SE 5 8 1029.7 - 0.6 - Partly cloudy 10 - - - -
28/10:30pm 7.6 SE 7 11 1029.8 - 0.6 - Cloudy 10 - - - -
28/10:00pm 7.3 SE 7 11 1029.9 - 0.6 - Partly cloudy 10 - - - -
28/09:30pm 7.6 SE 7 10 1029.7 - 0.6 - Cloudy 10 - - - -
28/09:00pm 7.5 SE 7 10 1029.7 - 0.6 - Partly cloudy 10 - - - -
28/08:30pm 7.9 SE 8 11 1029.6 - 0.6 - Partly cloudy 10 - - - -
28/08:00pm 8.3 SE 10 16 1029.4 - 0.6 - Partly cloudy 10 - - - -
28/07:30pm 8.3 SE 9 12 1029.2 - 0.6 - Partly cloudy 10 - - - -
28/07:00pm 8.9 SE 11 16 1029.0 - 0.6 - Partly cloudy 10 - - - -
28/06:30pm 8.9 SE 8 12 1028.7 - 0.6 - Partly cloudy 10 - - - -
28/06:00pm 8.6 ESE 7 10 1028.4 - 0.6 - Partly cloudy 10 - - - -
28/05:30pm 8.9 SE 11 16 1028.3 - 0.6 - Cloudy 10 - - - -
28/05:00pm 9.1 SE 11 18 1028.1 - 0.6 - Partly cloudy 10 - - - -
28/04:30pm 9.4 SE 14 19 1027.9 - 0.6 - Partly cloudy 10 - - - -
28/04:00pm 9.5 SE 11 18 1027.7 - 0.6 - Cloudy 10 - - - -
28/03:30pm 9.1 SE 12 17 1027.6 - 0.6 - Partly cloudy 10 - - - -
28/03:06pm 8.9 SE 12 20 1027.4 - 0.6 - Partly cloudy 9 - - - -
28/03:01pm 8.9 SE 12 20 1027.4 - 0.6 - Partly cloudy 8 - - - -
28/03:00pm 8.9 SE 12 20 1027.4 - 0.6 - Partly cloudy 8 - - - -
28/02:51pm 9.3 ESE 11 15 1027.4 - 0.6 - Partly cloudy 5 - - - -
28/02:37pm 9.4 SE 12 19 1027.4 - 0.4 - Partly cloudy 6 - - - -
28/02:30pm 9.7 SE 10 17 1027.4 - 0.2 Recent precip. Cloudy 10 - - - -
28/02:00pm 12.0 W 7 11 1027.0 - 0.2 - Partly cloudy 10 - - - -
28/01:30pm 11.8 WSW 9 11 1027.2 - 0.0 - Cloudy 10 - - - -
28/01:00pm 12.7 SW 6 9 1027.3 - 0.0 - Partly cloudy 10 - - - -
28/12:30pm 12.3 SW 7 11 1027.7 - 0.0 - Partly cloudy 10 - - - -
28/12:00pm 12.3 SSW 6 10 1028.1 - 0.0 - Partly cloudy 10 - - - -
28/11:30am 12.4 SW 6 9 1028.4 - 0.0 - Cloudy 10 - - - -
28/11:00am 12.2 SW 7 9 1028.6 - 0.0 - Partly cloudy 10 - - - -
28/10:30am 11.9 SSW 6 10 1028.7 - 0.0 - Partly cloudy 10 - - - -
28/10:00am 11.4 SW 7 11 1028.7 - 0.0 - Partly cloudy 10 - - - -
28/09:30am 11.4 SSW 7 11 1028.7 - 0.0 - Partly cloudy 10 - - - -
28/09:00am 11.3 SSW 7 11 1028.7 - 0.0 - Cloudy 10 - - - -
28/08:30am 11.1 S 6 8 1028.7 - 3.0 - Mostly cloudy 10 - - - -
28/08:00am 10.4 S 4 6 1028.5 - 3.0 - Cloudy 10 - - - -
28/07:30am 10.3 SSE 6 10 1028.3 - 3.0 - Cloudy 10 - - - -
28/07:00am 10.0 S 5 10 1028.0 - 3.0 - Partly cloudy 10 - - - -
28/06:30am 9.7 SSW 5 9 1027.8 - 3.0 - Cloudy 10 - - - -
28/06:00am 9.6 S 7 13 1027.5 - 3.0 - Cloudy 10 - - - -
28/05:30am 9.1 S 5 8 1027.4 - 3.0 - Cloudy 10 - - - -
28/05:00am 9.1 S 4 7 1027.1 - 3.0 - Cloudy 10 - - - -
28/04:30am 9.3 S 5 8 1027.0 - 3.0 - Cloudy 10 - - - -
28/04:00am 9.5 S 6 11 1026.8 - 3.0 - Cloudy 10 - - - -
28/03:30am 9.5 SSW 7 12 1026.8 - 3.0 - Cloudy 10 - - - -
28/03:00am 8.9 SSW 6 10 1027.0 - 3.0 - Partly cloudy 10 - - - -
28/02:30am 9.3 S 7 12 1027.3 - 3.0 - Cloudy 10 - - - -
28/02:00am 8.7 S 7 12 1027.4 - 3.0 - Partly cloudy 10 - - - -
28/01:56am 8.7 S 6 12 1027.4 - 3.0 - Partly cloudy 10 - - - -
28/01:35am 9.0 SSW 6 10 1027.4 - 3.0 - Partly cloudy 10 - - - -
28/01:30am 8.9 S 5 10 1027.5 - 3.0 - Partly cloudy 10 - - - -
28/01:24am 8.8 S 5 9 1027.6 - 3.0 - Partly cloudy 6 - - - -
28/01:11am 8.9 S 9 15 1027.7 - 2.8 - Partly cloudy 6 - - - -
28/01:00am 9.3 S 10 16 1027.7 - 2.6 - Partly cloudy 10 - - - -
28/12:30am 9.6 S 7 12 1027.4 - 2.6 - Partly cloudy 10 - - - -
28/12:00am 9.6 S 7 12 1027.3 - 2.6 - Partly cloudy 10 - - - -
 
Date/Time
CST
Temp

°C
Wind Pressure Rain
since 9am
mm
Weather Cloud Vis
km
Sea
Height
m
Swell
Dir
 
Speed
knots
Gust
knots
hPa Trend Height
m
Period
s
Dir
27/11:30pm 9.7 S 7 13 1027.2 - 2.6 - Cloudy 10 - - - -
27/11:00pm 10.0 S 8 15 1027.2 - 2.6 - Partly cloudy 10 - - - -
27/10:30pm 10.3 S 7 11 1027.2 - 2.6 - Partly cloudy 10 - - - -
27/10:00pm 10.0 SSW 7 11 1027.2 - 2.6 - Partly cloudy 10 - - - -
27/09:30pm 10.0 S 7 13 1027.2 - 2.6 - Partly cloudy 10 - - - -
27/09:17pm 10.0 S 7 11 1027.2 - 2.6 - Partly cloudy 10 - - - -
27/09:13pm 10.0 S 6 10 1027.1 - 2.6 - Partly cloudy 10 - - - -
27/09:00pm 10.2 SSE 7 11 1027.0 - 2.6 - Partly cloudy 6 - - - -
27/08:56pm 10.2 S 8 11 1027.0 - 2.6 - Partly cloudy 3 - - - -
27/08:49pm 10.0 S 9 12 1027.0 - 2.4 - Partly cloudy 4 - - - -
27/08:46pm 10.3 S 8 12 1027.1 - 1.0 - Partly cloudy 6 - - - -
27/08:39pm 10.9 S 8 13 1027.0 - 0.4 - Partly cloudy 10 - - - -
27/08:30pm 10.9 S 7 14 1026.8 - 0.2 - Cloudy 10 - - - -
27/08:00pm 11.0 S 8 13 1026.6 - 0.2 - Partly cloudy 10 - - - -
27/07:30pm 10.9 S 8 12 1026.3 - 0.2 - Partly cloudy 10 - - - -
27/07:00pm 10.3 S 8 11 1026.0 - 0.2 - Partly cloudy 10 - - - -
27/06:30pm 10.6 S 8 15 1025.9 - 0.2 - Partly cloudy 10 - - - -
27/06:00pm 11.1 SSE 9 14 1025.4 - 0.2 - Partly cloudy 10 - - - -
27/05:30pm 11.3 S 9 16 1024.9 - 0.0 - Cloudy 10 - - - -
27/05:00pm 11.3 S 11 16 1024.6 - 0.0 - Partly cloudy 10 - - - -
27/04:30pm 11.5 SSE 11 16 1024.2 - 0.0 - Partly cloudy 10 - - - -
27/04:27pm 11.4 SSE 11 16 1024.2 - 0.0 - Partly cloudy 10 - - - -
27/04:09pm 11.5 SSE 9 17 1023.8 - 0.0 - Partly cloudy 10 - - - -
27/04:00pm 11.5 SSE 10 15 1023.7 - 0.0 - Partly cloudy 10 - - - -
27/03:49pm 11.5 SSE 11 18 1023.7 - 0.0 - Partly cloudy 10 - - - -
27/03:30pm 11.9 S 9 15 1023.5 - 0.0 - Cloudy 10 - - - -
27/03:00pm 11.8 S 10 17 1023.3 - 0.0 - Partly cloudy 10 - - - -
27/02:30pm 11.9 S 12 18 1023.1 - 0.0 - Cloudy 10 - - - -
27/02:00pm 12.8 S 10 16 1022.9 - 0.0 - Partly cloudy 10 - - - -
27/01:30pm 13.0 SSW 10 17 1022.9 - 0.0 - Partly cloudy 10 - - - -
27/01:00pm 13.0 SSW 9 13 1023.0 - 0.0 - Partly cloudy 10 - - - -
27/12:55pm 13.2 S 9 13 1023.0 - 0.0 - Partly cloudy 10 - - - -
27/12:50pm 13.0 S 9 13 1023.1 - 0.0 - Partly cloudy 10 - - - -
27/12:30pm 13.4 S 7 12 1023.1 - 0.0 - Partly cloudy 10 - - - -
27/12:00pm 13.6 S 8 12 1023.3 - 0.0 - Partly cloudy 10 - - - -
27/11:38am 13.5 SSW 9 12 1023.4 - 0.0 - Partly cloudy 10 - - - -
27/11:30am 13.5 SSW 9 12 1023.5 - 0.0 - Cloudy 10 - - - -
27/11:18am 14.0 SSW 7 11 1023.5 - 0.0 - Partly cloudy 10 - - - -
27/11:00am 12.9 SSW 7 10 1023.6 - 0.0 - Partly cloudy 10 - - - -
27/10:48am 12.8 S 7 11 1023.7 - 0.0 - Partly cloudy 10 - - - -
27/10:30am 13.3 S 7 10 1023.6 - 0.0 - Partly cloudy 10 - - - -
27/10:00am 12.2 SSW 7 11 1023.6 - 0.0 - Partly cloudy 10 - - - -
27/09:30am 12.3 SW 4 7 1023.5 - 0.0 - Partly cloudy 10 - - - -
27/09:05am 11.5 SSW 5 9 1023.4 - 0.0 - Partly cloudy 10 - - - -
27/09:00am 10.8 SSW 6 9 1023.4 - 0.0 - Partly cloudy 10 - - - -
27/08:52am 11.5 SSW 6 8 1023.4 - 0.0 - Partly cloudy 10 - - - -
27/08:30am 10.7 WSW 2 6 1023.3 - 0.0 - Mostly clear 10 - - - -
27/08:00am 9.1 CALM 0 0 1023.1 - 0.0 - - 10 - - - -
27/07:30am 7.1 WSW 1 4 1022.7 - 0.0 - - 10 - - - -
27/07:03am 5.7 WSW 3 3 1022.3 - 0.0 - Partly cloudy 8 - - - -
27/07:00am 5.9 WSW 2 3 1022.2 - 0.0 - Partly cloudy 10 - - - -
27/06:30am 5.5 CALM 0 1 1022.0 - 0.0 - Partly cloudy 6 - - - -
27/06:22am 5.7 CALM 0 1 1022.0 - 0.0 - Partly cloudy 6 - - - -
27/06:00am 6.2 WSW 3 4 1022.0 - 0.0 - Partly cloudy 9 - - - -
27/05:36am 5.5 WSW 4 5 1021.8 - 0.0 - - 9 - - - -
27/05:30am 5.3 WSW 4 5 1021.7 - 0.0 - Mostly clear 8 - - - -
27/05:00am 5.9 WSW 4 5 1021.6 - 0.0 - Partly cloudy 4 - - - -
27/04:30am 5.9 WSW 5 6 1021.4 - 0.0 - Partly cloudy 5 - - - -
27/04:00am 5.8 WSW 6 7 1021.4 - 0.0 - Partly cloudy 2 - - - -
27/03:30am 6.0 W 5 5 1021.4 - 0.0 - Partly cloudy 2 - - - -
27/03:00am 6.9 W 5 5 1021.6 - 0.0 - Partly cloudy 2 - - - -
27/02:30am 6.5 W 6 8 1021.8 - 0.0 - Partly cloudy 2 - - - -
27/02:00am 7.0 WNW 6 7 1021.9 - 0.0 - - 3 - - - -
27/01:30am 7.1 SW 5 6 1022.1 - 0.0 - - 2 - - - -
27/01:00am 6.8 SW 4 5 1022.3 - 0.0 - Partly cloudy 4 - - - -
27/12:30am 6.0 SW 4 5 1022.4 - 0.0 - Partly cloudy 0.5 - - - -
27/12:00am 8.0 SW 3 4 1022.6 - 0.0 - - 4 - - - -

Other Formats:

Comma delimited format used in spreadsheet applications
http://www.bom.gov.au/fwo/IDS60701/IDS60701.94828.axf

JavaScript Object Notation format (JSON) in row-major order
http://www.bom.gov.au/fwo/IDS60701/IDS60701.94828.json